Time;durP1;ratioP1;P1;durP2;ratioP2;P2;SDS_P1;SDS_P2;PMS_P1;PMS_P2;Temp;Humidity;BMP_temperature;BMP_pressure;BME280_temperature;BME280_humidity;BME280_pressure;Samples;Min_cycle;Max_cycle;Signal;HPM_P1;HPM_P2
2021/07/26 00:02:09;;;;;;;26.05;20.52;;;;;;;;;;4344135;32;20552;-81
2021/07/26 00:04:43;;;;;;;19.25;16.77;;;;;;;;;;4343428;32;20212;-80
2021/07/26 00:07:34;;;;;;;21.17;17.65;;;;;;;;;;4343710;33;20135;-80
2021/07/26 00:16:05;;;;;;;20.52;16.85;;;;;;;;;;4314497;33;20163;-80
2021/07/26 00:19:02;;;;;;;;;;;;;;;;;;;;;
2021/07/26 00:24:58;;;;;;;26.15;18.27;;;;;;;;;;4283331;33;20155;-80
2021/07/26 00:37:01;;;;;;;;;;;;;;;;;;;;;
2021/07/26 00:39:36;;;;;;;26.08;21.58;;;;;;;;;;4345706;33;20506;-81
2021/07/26 00:42:02;;;;;;;28.65;22.62;;;;;;;;;;4344701;32;20182;-80
2021/07/26 00:45:02;;;;;;;21.45;19.10;;;;;;;;;;4327288;32;20171;-80
2021/07/26 00:57:35;;;;;;;26.73;21.37;;;;;;;;;;4299551;33;20612;-81
2021/07/26 01:00:18;;;;;;;27.60;21.70;;;;;;;;;;4273303;33;20198;-80
2021/07/26 01:02:57;;;;;;;;;;;;;;;;;;;;;
2021/07/26 01:05:41;;;;;;;32.33;27.08;;;;;;;;;;4343225;32;20159;-81
2021/07/26 01:08:36;;;;;;;40.22;29.55;;;;;;;;;;4373279;32;20182;-81
2021/07/26 01:14:05;;;;;;;35.08;27.83;;;;;;;;;;4313850;33;20186;-81
2021/07/26 01:17:21;;;;;;;;;;;;;;;;;;;;;
2021/07/26 01:22:58;;;;;;;24.92;19.98;;;;;;;;;;4357663;33;20249;-81
2021/07/26 01:25:59;;;;;;;22.65;18.50;;;;;;;;;;4358216;32;20167;-81
2021/07/26 01:28:42;;;;;;;;;;;;;;;;;;;;;
2021/07/26 01:31:20;;;;;;;29.73;22.75;;;;;;;;;;4360743;32;20183;-81
2021/07/26 01:33:48;;;;;;;20.67;17.48;;;;;;;;;;4346660;32;20193;-81
2021/07/26 01:36:20;;;;;;;26.80;20.10;;;;;;;;;;4347222;32;20634;-81
2021/07/26 01:42:12;;;;;;;;;;;;;;;;;;;;;
2021/07/26 01:53:56;;;;;;;;;;;;;;;;;;;;;
2021/07/26 01:56:44;;;;;;;25.73;17.45;;;;;;;;;;4360340;32;20305;-81
2021/07/26 01:59:48;;;;;;;19.33;16.25;;;;;;;;;;4360054;32;20460;-82
2021/07/26 02:02:37;;;;;;;;;;;;;;;;;;;;;
2021/07/26 02:05:39;;;;;;;;;;;;;;;;;;;;;
2021/07/26 02:14:10;;;;;;;;;;;;;;;;;;;;;
2021/07/26 02:19:43;;;;;;;;;;;;;;;;;;;;;
2021/07/26 02:22:20;;;;;;;25.65;20.02;;;;;;;;;;4345275;33;20140;-81
2021/07/26 02:24:57;;;;;;;19.95;16.55;;;;;;;;;;4328416;32;20658;-82
2021/07/26 02:27:36;;;;;;;22.80;17.90;;;;;;;;;;4329793;32;20159;-82
2021/07/26 02:30:22;;;;;;;23.40;18.35;;;;;;;;;;4331961;32;20147;-82
2021/07/26 02:36:08;;;;;;;20.75;17.73;;;;;;;;;;4328576;33;20476;-82
2021/07/26 02:38:33;;;;;;;20.48;16.42;;;;;;;;;;4330789;33;20228;-82
2021/07/26 02:41:34;;;;;;;22.58;19.80;;;;;;;;;;4331482;33;20159;-82
2021/07/26 02:50:33;;;;;;;18.27;14.68;;;;;;;;;;4339183;33;20507;-83
2021/07/26 02:53:06;;;;;;;19.70;15.65;;;;;;;;;;4336091;33;20170;-82
2021/07/26 02:55:34;;;;;;;23.02;16.85;;;;;;;;;;4330932;32;20226;-83
2021/07/26 02:58:07;;;;;;;24.73;19.67;;;;;;;;;;4330791;33;20194;-82
2021/07/26 03:00:40;;;;;;;21.67;16.33;;;;;;;;;;4336684;32;20209;-83
2021/07/26 03:03:19;;;;;;;17.37;14.10;;;;;;;;;;4344523;33;20167;-83
2021/07/26 03:06:05;;;;;;;18.90;15.93;;;;;;;;;;4331486;32;20155;-82
2021/07/26 03:08:31;;;;;;;20.05;15.23;;;;;;;;;;4320067;32;20186;-82
2021/07/26 03:11:04;;;;;;;23.55;17.95;;;;;;;;;;4330850;32;20167;-82
2021/07/26 03:13:38;;;;;;;26.02;19.55;;;;;;;;;;4345451;32;20230;-82
2021/07/26 03:16:23;;;;;;;22.45;18.73;;;;;;;;;;4358091;33;20150;-83
2021/07/26 03:18:50;;;;;;;23.05;18.80;;;;;;;;;;4359525;32;20127;-83
2021/07/26 03:21:16;;;;;;;27.17;20.08;;;;;;;;;;4357759;32;20152;-82
2021/07/26 03:24:00;;;;;;;27.02;19.75;;;;;;;;;;4358735;32;20175;-82
2021/07/26 03:26:26;;;;;;;22.40;18.52;;;;;;;;;;4357730;32;20163;-82
2021/07/26 03:29:13;;;;;;;26.15;19.70;;;;;;;;;;4357773;32;20181;-82
2021/07/26 03:31:47;;;;;;;17.05;15.20;;;;;;;;;;4358036;32;20163;-83
2021/07/26 03:34:33;;;;;;;32.28;22.45;;;;;;;;;;4360421;32;20154;-83
2021/07/26 03:36:59;;;;;;;27.75;19.02;;;;;;;;;;4357590;32;20159;-83
2021/07/26 03:39:27;;;;;;;24.75;18.50;;;;;;;;;;4357448;32;20189;-82
2021/07/26 03:44:54;;;;;;;30.70;22.27;;;;;;;;;;4353142;32;20455;-83
2021/07/26 03:47:35;;;;;;;32.85;22.65;;;;;;;;;;4357394;32;20208;-83
2021/07/26 03:50:09;;;;;;;30.75;24.08;;;;;;;;;;4358727;32;20167;-82
2021/07/26 03:53:15;;;;;;;32.20;22.70;;;;;;;;;;4358417;32;20596;-83
2021/07/26 03:55:42;;;;;;;33.50;21.33;;;;;;;;;;4353809;32;20237;-82
2021/07/26 03:58:08;;;;;;;31.12;22.48;;;;;;;;;;4344989;33;20190;-82
2021/07/26 04:00:41;;;;;;;31.80;23.73;;;;;;;;;;4345476;32;20163;-83
2021/07/26 04:08:34;;;;;;;31.60;22.17;;;;;;;;;;4359175;33;20135;-84
2021/07/26 04:11:21;;;;;;;27.83;19.20;;;;;;;;;;4358817;33;20268;-84
2021/07/26 04:14:02;;;;;;;;;;;;;;;;;;;;;
2021/07/26 04:16:31;;;;;;;31.37;24.15;;;;;;;;;;4358725;32;20177;-84
2021/07/26 04:19:01;;;;;;;22.45;18.05;;;;;;;;;;4345535;32;20167;-85
2021/07/26 04:21:33;;;;;;;25.62;20.73;;;;;;;;;;4357411;32;20219;-85
2021/07/26 04:24:12;;;;;;;32.00;21.50;;;;;;;;;;4354904;32;20190;-84
2021/07/26 04:26:58;;;;;;;40.25;26.52;;;;;;;;;;4342257;33;20657;-83
2021/07/26 04:29:24;;;;;;;24.37;20.12;;;;;;;;;;4342646;33;20155;-83
2021/07/26 04:31:50;;;;;;;28.42;22.00;;;;;;;;;;4342171;33;20151;-84
2021/07/26 04:34:28;;;;;;;;;;;;;;;;;;;;;
2021/07/26 04:37:00;;;;;;;27.17;21.48;;;;;;;;;;4343916;33;20139;-84
2021/07/26 04:39:25;;;;;;;28.48;19.08;;;;;;;;;;4342056;33;20264;-84
2021/07/26 04:41:50;;;;;;;29.87;20.85;;;;;;;;;;4342249;32;20222;-84
2021/07/26 04:44:24;;;;;;;36.05;25.25;;;;;;;;;;4342063;33;20186;-84
2021/07/26 04:46:52;;;;;;;30.12;20.20;;;;;;;;;;4342256;33;20159;-84
2021/07/26 04:49:20;;;;;;;31.37;21.77;;;;;;;;;;4342052;33;20163;-84
2021/07/26 04:51:51;;;;;;;28.67;22.30;;;;;;;;;;4343550;32;20202;-84
2021/07/26 04:54:18;;;;;;;32.95;22.40;;;;;;;;;;4340679;33;20213;-84
2021/07/26 04:59:56;;;;;;;25.67;20.35;;;;;;;;;;4343180;33;20586;-85
2021/07/26 05:02:30;;;;;;;22.35;18.23;;;;;;;;;;4343034;33;20174;-85
2021/07/26 05:04:56;;;;;;;19.80;17.05;;;;;;;;;;4346706;32;20188;-85
2021/07/26 05:07:27;;;;;;;27.25;19.48;;;;;;;;;;4358845;32;20162;-85
2021/07/26 05:09:53;;;;;;;26.83;20.55;;;;;;;;;;4359723;33;20155;-83
2021/07/26 05:12:18;;;;;;;27.37;20.73;;;;;;;;;;4359627;32;20531;-83
2021/07/26 05:14:46;;;;;;;23.35;18.85;;;;;;;;;;4359700;32;20179;-84
2021/07/26 05:17:12;;;;;;;26.87;19.52;;;;;;;;;;4359573;32;20225;-83
2021/07/26 05:19:37;;;;;;;21.20;17.23;;;;;;;;;;4359314;32;20166;-84
2021/07/26 05:22:04;;;;;;;25.55;18.23;;;;;;;;;;4359015;32;20158;-84
2021/07/26 05:24:30;;;;;;;24.40;18.98;;;;;;;;;;4359152;32;20167;-84
2021/07/26 05:27:03;;;;;;;24.10;16.73;;;;;;;;;;4346686;32;20235;-84
2021/07/26 05:29:29;;;;;;;23.52;17.05;;;;;;;;;;4359899;32;20177;-85
2021/07/26 05:31:55;;;;;;;25.92;18.42;;;;;;;;;;4359568;32;20163;-85
2021/07/26 05:34:20;;;;;;;28.80;18.95;;;;;;;;;;4358959;33;20202;-84
2021/07/26 05:36:46;;;;;;;26.27;20.00;;;;;;;;;;4359215;32;20182;-83
2021/07/26 05:39:11;;;;;;;22.15;16.45;;;;;;;;;;4359454;32;20167;-83
2021/07/26 05:41:37;;;;;;;23.42;17.62;;;;;;;;;;4359119;32;20223;-84
2021/07/26 05:44:10;;;;;;;19.40;15.57;;;;;;;;;;4358794;32;20167;-83
2021/07/26 05:46:39;;;;;;;28.35;18.00;;;;;;;;;;4359222;32;20163;-84
2021/07/26 05:49:10;;;;;;;22.42;16.55;;;;;;;;;;4358900;32;20167;-84
2021/07/26 05:52:00;;;;;;;20.00;16.05;;;;;;;;;;4358840;32;20159;-83
2021/07/26 05:54:25;;;;;;;19.95;16.02;;;;;;;;;;4358878;32;20190;-84
2021/07/26 05:56:51;;;;;;;18.70;16.00;;;;;;;;;;4359215;32;20484;-84
2021/07/26 05:59:33;;;;;;;23.12;16.77;;;;;;;;;;4359491;32;20255;-85
2021/07/26 06:01:59;;;;;;;20.37;14.77;;;;;;;;;;4359595;32;20247;-83
2021/07/26 06:04:24;;;;;;;20.85;15.77;;;;;;;;;;4359058;32;20162;-83
2021/07/26 06:06:51;;;;;;;20.60;15.75;;;;;;;;;;4345090;32;20221;-83
2021/07/26 06:09:46;;;;;;;18.85;15.98;;;;;;;;;;4351531;32;20168;-84
2021/07/26 06:12:23;;;;;;;23.02;16.05;;;;;;;;;;4360417;32;20163;-83
2021/07/26 06:14:51;;;;;;;21.80;17.05;;;;;;;;;;4351240;32;20172;-83
2021/07/26 06:17:17;;;;;;;19.48;15.63;;;;;;;;;;4345753;33;20163;-84
2021/07/26 06:19:48;;;;;;;23.48;17.02;;;;;;;;;;4343765;33;20454;-84
2021/07/26 06:22:20;;;;;;;23.65;17.10;;;;;;;;;;4347912;33;20239;-84
2021/07/26 06:24:51;;;;;;;24.95;18.10;;;;;;;;;;4359142;32;20158;-84
2021/07/26 06:27:17;;;;;;;23.25;18.17;;;;;;;;;;4345808;32;20163;-84
2021/07/26 06:29:42;;;;;;;23.12;18.02;;;;;;;;;;4342777;32;20228;-85
2021/07/26 06:32:08;;;;;;;29.12;19.27;;;;;;;;;;4342880;32;20227;-83
2021/07/26 06:34:33;;;;;;;25.77;18.65;;;;;;;;;;4343594;32;20163;-84
2021/07/26 06:36:59;;;;;;;27.30;21.20;;;;;;;;;;4343871;32;20182;-84
2021/07/26 06:39:24;;;;;;;26.48;19.60;;;;;;;;;;4344064;32;20529;-84
2021/07/26 06:42:12;;;;;;;29.20;22.75;;;;;;;;;;4343952;32;20528;-88
2021/07/26 06:45:15;;;;;;;29.77;23.33;;;;;;;;;;4345149;33;20190;-86
2021/07/26 06:47:52;;;;;;;25.25;20.48;;;;;;;;;;4333317;33;20225;-87
2021/07/26 06:50:39;;;;;;;;;;;;;;;;;;;;;
2021/07/26 06:53:28;;;;;;;19.95;16.50;;;;;;;;;;4342051;33;20178;-83
2021/07/26 06:55:58;;;;;;;23.25;18.10;;;;;;;;;;4337771;32;20198;-83
2021/07/26 06:58:23;;;;;;;19.75;17.23;;;;;;;;;;4343203;32;20171;-84
2021/07/26 07:00:54;;;;;;;20.48;16.60;;;;;;;;;;4344222;33;20549;-85
2021/07/26 07:03:19;;;;;;;18.55;16.55;;;;;;;;;;4351972;33;20179;-85
2021/07/26 07:05:51;;;;;;;21.05;17.85;;;;;;;;;;4345148;33;20603;-84
2021/07/26 07:08:19;;;;;;;21.83;17.12;;;;;;;;;;4344741;32;20167;-84
2021/07/26 07:10:53;;;;;;;18.25;14.20;;;;;;;;;;4344154;32;20167;-83
2021/07/26 07:13:24;;;;;;;16.37;14.48;;;;;;;;;;4343906;32;20228;-85
2021/07/26 07:15:59;;;;;;;13.57;12.02;;;;;;;;;;4346262;33;20205;-83
2021/07/26 07:18:34;;;;;;;15.13;12.25;;;;;;;;;;4346249;32;20170;-85
2021/07/26 07:21:42;;;;;;;16.17;11.48;;;;;;;;;;4345518;32;20277;-85
2021/07/26 07:24:11;;;;;;;15.00;12.18;;;;;;;;;;4356614;33;20197;-87
2021/07/26 07:41:46;;;;;;;16.67;12.95;;;;;;;;;;4284488;33;20167;-87
2021/07/26 07:44:40;;;;;;;15.65;12.85;;;;;;;;;;4266422;33;20638;-89
2021/07/26 07:47:11;;;;;;;16.55;13.10;;;;;;;;;;4252009;33;20200;-87
2021/07/26 07:53:56;;;;;;;;;;;;;;;;;;;;;
2021/07/26 07:59:45;;;;;;;17.55;14.50;;;;;;;;;;4346165;33;20193;-88
2021/07/26 08:23:12;;;;;;;19.87;16.00;;;;;;;;;;4315094;33;20244;-84
2021/07/26 08:26:11;;;;;;;;;;;;;;;;;;;;;
2021/07/26 08:28:40;;;;;;;17.15;14.55;;;;;;;;;;4312566;33;20147;-84
2021/07/26 08:31:31;;;;;;;22.02;17.30;;;;;;;;;;4332873;33;20152;-85
2021/07/26 08:34:36;;;;;;;24.60;17.20;;;;;;;;;;4312475;32;20620;-85
2021/07/26 08:40:17;;;;;;;24.70;17.17;;;;;;;;;;4328900;33;20189;-85
2021/07/26 08:42:52;;;;;;;22.52;19.23;;;;;;;;;;4288914;33;20191;-85
2021/07/26 08:45:26;;;;;;;28.30;20.17;;;;;;;;;;4297962;32;20192;-85
2021/07/26 08:48:23;;;;;;;34.08;24.67;;;;;;;;;;4388347;32;20208;-85
2021/07/26 08:50:58;;;;;;;35.08;27.05;;;;;;;;;;4397568;32;20154;-85
2021/07/26 08:56:52;;;;;;;33.92;24.08;;;;;;;;;;4343827;33;20165;-87
2021/07/26 08:59:30;;;;;;;38.72;26.60;;;;;;;;;;4342179;32;20296;-85
2021/07/26 09:02:06;;;;;;;40.38;27.77;;;;;;;;;;4387708;32;20166;-86
2021/07/26 09:04:40;;;;;;;40.80;30.33;;;;;;;;;;4376067;32;20161;-86
2021/07/26 09:07:45;;;;;;;41.03;28.77;;;;;;;;;;4390677;32;20533;-86
2021/07/26 09:10:35;;;;;;;42.67;29.87;;;;;;;;;;4383427;32;20158;-86
2021/07/26 09:13:13;;;;;;;;;;;;;;;;;;;;;
2021/07/26 09:17:13;;;;;;;;;;;;;;;;;;;;;
2021/07/26 09:19:12;;;;;;;37.33;27.45;;;;;;;;;;4324014;33;20184;-85
2021/07/26 09:28:25;;;;;;;38.75;27.75;;;;;;;;;;4299606;33;20301;-85
2021/07/26 09:30:52;;;;;;;39.13;25.15;;;;;;;;;;4316302;33;20148;-87
2021/07/26 09:33:53;;;;;;;33.35;24.87;;;;;;;;;;4327976;33;20217;-85
2021/07/26 09:36:20;;;;;;;35.20;25.92;;;;;;;;;;4313902;33;20171;-84
2021/07/26 09:41:56;;;;;;;32.65;24.60;;;;;;;;;;4336617;33;20186;-86
2021/07/26 09:44:29;;;;;;;34.03;25.83;;;;;;;;;;4326868;33;20164;-85
2021/07/26 09:47:31;;;;;;;30.10;24.60;;;;;;;;;;4327349;32;20155;-84
2021/07/26 09:50:08;;;;;;;27.67;19.83;;;;;;;;;;4316005;33;20259;-84
2021/07/26 09:52:33;;;;;;;22.98;17.67;;;;;;;;;;4335902;33;20151;-83
2021/07/26 09:57:52;;;;;;;21.50;18.70;;;;;;;;;;4345175;33;20204;-84
2021/07/26 10:00:18;;;;;;;21.17;16.37;;;;;;;;;;4345180;33;20179;-85
2021/07/26 10:03:07;;;;;;;19.20;15.88;;;;;;;;;;4342025;33;20622;-84
2021/07/26 10:05:33;;;;;;;19.87;16.52;;;;;;;;;;4348501;32;20159;-85
2021/07/26 10:08:09;;;;;;;19.40;16.30;;;;;;;;;;4344116;33;20514;-84
2021/07/26 10:10:47;;;;;;;18.37;15.73;;;;;;;;;;4333112;32;20214;-82
2021/07/26 10:13:18;;;;;;;15.73;13.88;;;;;;;;;;4342295;33;20163;-84
2021/07/26 10:15:43;;;;;;;19.85;14.95;;;;;;;;;;4343745;32;20210;-83
2021/07/26 10:18:12;;;;;;;15.38;13.35;;;;;;;;;;4353175;32;20174;-84
2021/07/26 10:20:56;;;;;;;15.93;12.75;;;;;;;;;;4340417;32;20230;-83
2021/07/26 10:23:33;;;;;;;15.70;12.45;;;;;;;;;;4337280;33;20198;-83
2021/07/26 10:26:11;;;;;;;14.82;13.25;;;;;;;;;;4340717;32;20162;-83
2021/07/26 10:28:38;;;;;;;16.80;13.88;;;;;;;;;;4335923;33;20163;-83
2021/07/26 10:31:56;;;;;;;;;;;;;;;;;;;;;
2021/07/26 10:34:17;;;;;;;17.42;15.63;;;;;;;;;;4408895;32;20582;-84
2021/07/26 10:37:07;;;;;;;19.10;16.05;;;;;;;;;;4424274;32;20199;-83
2021/07/26 10:43:12;;;;;;;17.23;13.52;;;;;;;;;;4298812;33;20194;-83
2021/07/26 10:45:34;;;;;;;18.58;14.35;;;;;;;;;;4297899;32;20181;-83
2021/07/26 10:48:18;;;;;;;12.10;10.02;;;;;;;;;;4344029;33;20194;-84
2021/07/26 10:50:46;;;;;;;13.80;12.27;;;;;;;;;;4358246;32;20232;-85
2021/07/26 10:53:35;;;;;;;10.25;8.80;;;;;;;;;;4358648;32;20158;-85
2021/07/26 10:56:11;;;;;;;13.18;10.88;;;;;;;;;;4356037;32;20166;-85
2021/07/26 10:58:42;;;;;;;13.68;12.20;;;;;;;;;;4359136;32;20166;-85
2021/07/26 11:01:20;;;;;;;12.85;11.60;;;;;;;;;;4357945;32;20327;-83
2021/07/26 11:03:46;;;;;;;13.18;10.73;;;;;;;;;;4354561;32;20170;-83
2021/07/26 11:06:31;;;;;;;10.75;9.15;;;;;;;;;;4357800;32;20189;-84
2021/07/26 11:09:17;;;;;;;9.25;7.62;;;;;;;;;;4344668;33;20163;-84
2021/07/26 11:11:42;;;;;;;8.48;7.57;;;;;;;;;;4345393;33;20186;-84
2021/07/26 11:14:17;;;;;;;8.43;6.95;;;;;;;;;;4350241;32;20229;-84
2021/07/26 11:17:17;;;;;;;10.27;6.85;;;;;;;;;;4357671;32;20296;-83
2021/07/26 11:19:44;;;;;;;9.35;7.05;;;;;;;;;;4345045;33;20234;-84
2021/07/26 11:22:20;;;;;;;8.05;6.32;;;;;;;;;;4345505;32;20215;-84
2021/07/26 11:24:49;;;;;;;6.47;5.78;;;;;;;;;;4345571;32;20190;-84
2021/07/26 11:27:16;;;;;;;6.30;4.82;;;;;;;;;;4345647;32;20163;-85
2021/07/26 11:29:47;;;;;;;5.97;3.65;;;;;;;;;;4345362;33;20276;-84
2021/07/26 11:32:13;;;;;;;4.95;3.87;;;;;;;;;;4344688;32;20191;-85
2021/07/26 11:34:46;;;;;;;4.28;3.83;;;;;;;;;;4358859;33;20155;-84
2021/07/26 11:37:15;;;;;;;5.43;4.00;;;;;;;;;;4345125;32;20231;-85
2021/07/26 11:39:43;;;;;;;5.50;3.95;;;;;;;;;;4345309;32;20163;-85
2021/07/26 11:42:20;;;;;;;4.60;3.67;;;;;;;;;;4345297;32;20583;-85
2021/07/26 11:44:51;;;;;;;7.03;5.35;;;;;;;;;;4345471;32;20167;-84
2021/07/26 11:47:17;;;;;;;8.23;5.55;;;;;;;;;;4345161;32;20214;-85
2021/07/26 11:50:03;;;;;;;8.65;6.93;;;;;;;;;;4345330;32;20499;-84
2021/07/26 11:52:37;;;;;;;11.80;8.20;;;;;;;;;;4345079;33;20155;-85
2021/07/26 11:55:21;;;;;;;9.57;8.00;;;;;;;;;;4345586;33;20154;-86
2021/07/26 11:58:13;;;;;;;10.30;8.75;;;;;;;;;;4344907;33;20159;-80
2021/07/26 12:00:48;;;;;;;16.17;11.68;;;;;;;;;;4344901;33;20268;-85
2021/07/26 12:03:18;;;;;;;13.27;10.20;;;;;;;;;;4345030;33;20564;-84
2021/07/26 12:05:43;;;;;;;10.32;6.55;;;;;;;;;;4345165;33;20584;-82
2021/07/26 12:08:26;;;;;;;14.43;8.88;;;;;;;;;;4344744;33;20219;-81
2021/07/26 12:13:44;;;;;;;12.18;8.50;;;;;;;;;;4312319;33;20200;-82
2021/07/26 12:19:13;;;;;;;16.60;11.27;;;;;;;;;;4373872;32;20517;-83
2021/07/26 12:21:43;;;;;;;15.80;11.45;;;;;;;;;;4356694;32;20193;-81
2021/07/26 12:24:10;;;;;;;11.95;8.93;;;;;;;;;;4352061;32;20548;-81
2021/07/26 12:26:41;;;;;;;11.73;8.75;;;;;;;;;;4356876;32;20234;-82
2021/07/26 12:29:41;;;;;;;20.12;10.68;;;;;;;;;;4355515;32;20163;-82
2021/07/26 12:32:13;;;;;;;17.00;11.02;;;;;;;;;;4356916;33;20577;-82
2021/07/26 12:35:17;;;;;;;16.83;12.32;;;;;;;;;;4356884;33;20228;-83
2021/07/26 12:38:07;;;;;;;16.00;12.05;;;;;;;;;;4358668;32;20197;-83
2021/07/26 12:40:37;;;;;;;26.37;18.52;;;;;;;;;;4356614;33;20159;-82
2021/07/26 12:43:06;;;;;;;29.08;18.55;;;;;;;;;;4344172;32;20451;-81
2021/07/26 12:45:41;;;;;;;33.97;21.45;;;;;;;;;;4344905;32;20229;-83
2021/07/26 12:48:47;;;;;;;;;;;;;;;;;;;;;
2021/07/26 12:51:33;;;;;;;;;;;;;;;;;;;;;
2021/07/26 12:54:08;;;;;;;27.17;20.98;;;;;;;;;;4344730;32;20151;-82
2021/07/26 12:57:04;;;;;;;;;;;;;;;;;;;;;
2021/07/26 12:59:38;;;;;;;24.77;19.70;;;;;;;;;;4349377;32;20638;-84
2021/07/26 13:02:46;;;;;;;;;;;;;;;;;;;;;
2021/07/26 13:06:12;;;;;;;23.27;19.15;;;;;;;;;;4341611;32;20510;-82
2021/07/26 13:08:22;;;;;;;24.67;20.08;;;;;;;;;;4310948;32;20180;-81
2021/07/26 13:10:52;;;;;;;27.98;23.77;;;;;;;;;;4317184;33;20211;-80
2021/07/26 13:13:23;;;;;;;29.55;23.23;;;;;;;;;;4322318;33;20174;-82
2021/07/26 13:19:12;;;;;;;20.12;14.87;;;;;;;;;;4325924;33;20166;-80
2021/07/26 13:21:57;;;;;;;18.95;14.00;;;;;;;;;;4313680;33;20894;-80
2021/07/26 13:24:31;;;;;;;16.73;13.10;;;;;;;;;;4357285;32;20194;-80
2021/07/26 13:26:57;;;;;;;20.92;15.50;;;;;;;;;;4344470;33;20158;-79
2021/07/26 13:29:22;;;;;;;17.15;14.60;;;;;;;;;;4344155;32;20482;-80
2021/07/26 13:31:47;;;;;;;14.75;12.07;;;;;;;;;;4346967;32;20195;-80
2021/07/26 13:34:31;;;;;;;14.60;12.90;;;;;;;;;;4346625;33;20189;-81
2021/07/26 13:37:08;;;;;;;16.25;11.57;;;;;;;;;;4346401;33;20567;-81
2021/07/26 13:40:16;;;;;;;;;;;;;;;;;;;;;
2021/07/26 13:42:51;;;;;;;12.10;9.80;;;;;;;;;;4360755;32;20139;-79
2021/07/26 13:45:17;;;;;;;12.68;10.30;;;;;;;;;;4346905;32;20166;-79
2021/07/26 13:47:42;;;;;;;13.20;10.30;;;;;;;;;;4346101;33;20155;-80
2021/07/26 13:50:10;;;;;;;15.18;11.20;;;;;;;;;;4341146;32;20265;-81
2021/07/26 13:52:36;;;;;;;15.63;11.57;;;;;;;;;;4340991;33;20163;-81
2021/07/26 13:57:57;;;;;;;;;;;;;;;;;;;;;
2021/07/26 14:00:53;;;;;;;14.02;10.90;;;;;;;;;;4313360;32;20185;-81
2021/07/26 14:03:33;;;;;;;12.57;10.15;;;;;;;;;;4324880;32;20168;-81
2021/07/26 14:06:03;;;;;;;9.88;7.50;;;;;;;;;;4346657;32;20210;-81
2021/07/26 14:08:29;;;;;;;8.88;6.62;;;;;;;;;;4361012;32;20167;-81
2021/07/26 14:11:05;;;;;;;;;;;;;;;;;;;;;
2021/07/26 14:19:28;;;;;;;4.55;3.50;;;;;;;;;;4367617;32;20731;-84
2021/07/26 14:22:05;;;;;;;3.15;2.80;;;;;;;;;;4375821;32;20537;-83
2021/07/26 14:24:30;;;;;;;5.75;3.28;;;;;;;;;;4358580;32;20146;-84
2021/07/26 14:26:57;;;;;;;3.80;2.62;;;;;;;;;;4358451;32;20186;-84
2021/07/26 14:29:33;;;;;;;4.75;2.75;;;;;;;;;;4358890;32;20483;-82
2021/07/26 14:32:06;;;;;;;3.28;2.72;;;;;;;;;;4359354;32;20155;-84
2021/07/26 14:34:31;;;;;;;3.97;3.05;;;;;;;;;;4359147;32;20588;-85
2021/07/26 14:36:57;;;;;;;7.47;3.60;;;;;;;;;;4358261;32;20170;-85
2021/07/26 14:39:24;;;;;;;3.87;3.40;;;;;;;;;;4358213;33;20589;-85
2021/07/26 14:41:49;;;;;;;3.85;3.40;;;;;;;;;;4358719;32;20230;-85
2021/07/26 14:44:17;;;;;;;4.18;3.65;;;;;;;;;;4358826;32;20216;-85
2021/07/26 14:46:49;;;;;;;5.90;5.03;;;;;;;;;;4359507;32;20128;-85
2021/07/26 14:49:17;;;;;;;6.65;5.90;;;;;;;;;;4358872;32;20174;-84
2021/07/26 14:51:49;;;;;;;8.25;5.95;;;;;;;;;;4358752;32;20196;-85
2021/07/26 14:54:17;;;;;;;5.87;5.25;;;;;;;;;;4359532;32;20182;-86
2021/07/26 14:57:21;;;;;;;9.20;6.40;;;;;;;;;;4358029;32;20178;-86
2021/07/26 15:03:10;;;;;;;;;;;;;;;;;;;;;
2021/07/26 15:05:41;;;;;;;6.10;5.50;;;;;;;;;;4359773;33;20155;-86
2021/07/26 15:11:20;;;;;;;9.05;7.20;;;;;;;;;;4300763;33;20161;-86
2021/07/26 15:16:39;;;;;;;14.18;10.40;;;;;;;;;;4359903;33;20170;-87
2021/07/26 15:19:05;;;;;;;11.10;9.43;;;;;;;;;;4358623;32;20225;-86
2021/07/26 15:21:33;;;;;;;11.73;10.07;;;;;;;;;;4352234;32;20206;-86
2021/07/26 15:27:05;;;;;;;12.80;10.95;;;;;;;;;;4366222;32;20664;-85
2021/07/26 15:29:33;;;;;;;15.98;13.30;;;;;;;;;;4345808;32;20162;-85
2021/07/26 15:32:07;;;;;;;14.13;12.60;;;;;;;;;;4346000;33;20204;-85
2021/07/26 15:34:44;;;;;;;18.67;14.73;;;;;;;;;;4346044;33;20190;-85
2021/07/26 15:37:11;;;;;;;19.90;15.40;;;;;;;;;;4346159;33;20154;-86
2021/07/26 15:40:11;;;;;;;;;;;;;;;;;;;;;
2021/07/26 15:42:54;;;;;;;21.10;15.73;;;;;;;;;;4360627;33;20151;-86
2021/07/26 15:45:26;;;;;;;28.85;20.60;;;;;;;;;;4345660;33;20150;-81
2021/07/26 15:47:51;;;;;;;32.53;24.95;;;;;;;;;;4344802;33;20174;-81
2021/07/26 15:50:19;;;;;;;31.75;24.63;;;;;;;;;;4345001;32;20189;-80
2021/07/26 15:52:59;;;;;;;36.67;25.67;;;;;;;;;;4344622;33;20212;-81
2021/07/26 15:55:25;;;;;;;33.13;24.17;;;;;;;;;;4344962;32;20640;-81
2021/07/26 15:57:50;;;;;;;42.30;29.98;;;;;;;;;;4345494;32;20221;-82
2021/07/26 16:00:16;;;;;;;43.03;28.95;;;;;;;;;;4345133;33;20170;-82
2021/07/26 16:02:41;;;;;;;47.45;31.00;;;;;;;;;;4347251;32;20225;-81
2021/07/26 16:05:07;;;;;;;48.60;33.13;;;;;;;;;;4345782;32;20211;-83
2021/07/26 16:07:35;;;;;;;56.60;34.72;;;;;;;;;;4357503;32;20163;-84
2021/07/26 16:10:04;;;;;;;50.63;33.50;;;;;;;;;;4355802;32;20194;-82
2021/07/26 16:12:32;;;;;;;63.20;39.03;;;;;;;;;;4346119;32;20208;-83
2021/07/26 16:15:08;;;;;;;55.35;36.55;;;;;;;;;;4344801;33;20151;-82
2021/07/26 16:17:33;;;;;;;62.28;39.33;;;;;;;;;;4370087;32;20221;-82
2021/07/26 16:20:01;;;;;;;60.47;39.28;;;;;;;;;;4347638;33;20505;-84
2021/07/26 16:22:26;;;;;;;57.00;36.60;;;;;;;;;;4356546;32;20174;-84
2021/07/26 16:24:52;;;;;;;62.40;40.47;;;;;;;;;;4357058;32;20185;-83
2021/07/26 16:27:17;;;;;;;60.28;38.25;;;;;;;;;;4357033;32;20255;-83
2021/07/26 16:30:02;;;;;;;50.97;32.17;;;;;;;;;;4358328;32;20455;-81
2021/07/26 16:32:30;;;;;;;50.50;33.83;;;;;;;;;;4400477;32;20181;-81
2021/07/26 16:35:18;;;;;;;57.97;36.42;;;;;;;;;;4357217;32;20147;-82
2021/07/26 16:37:44;;;;;;;51.70;32.42;;;;;;;;;;4357038;32;20218;-83
2021/07/26 16:40:11;;;;;;;54.25;34.28;;;;;;;;;;4357645;33;20573;-83
2021/07/26 16:42:40;;;;;;;59.10;35.55;;;;;;;;;;4355589;32;20614;-83
2021/07/26 16:45:06;;;;;;;65.97;40.28;;;;;;;;;;4357823;33;20460;-82
2021/07/26 16:47:34;;;;;;;55.40;32.83;;;;;;;;;;4350322;32;20155;-83
2021/07/26 16:50:10;;;;;;;;;;;;;;;;;;;;;
2021/07/26 16:52:38;;;;;;;58.67;37.17;;;;;;;;;;4358337;32;20267;-82
2021/07/26 16:55:15;;;;;;;55.33;34.00;;;;;;;;;;4344958;32;20182;-83
2021/07/26 16:57:40;;;;;;;64.10;34.88;;;;;;;;;;4345492;33;20151;-83
2021/07/26 17:00:12;;;;;;;71.53;41.28;;;;;;;;;;4347232;33;20189;-83
2021/07/26 17:02:45;;;;;;;92.62;47.92;;;;;;;;;;4348015;33;20155;-83
2021/07/26 17:05:18;;;;;;;66.60;40.90;;;;;;;;;;4347834;33;20163;-83
2021/07/26 17:08:03;;;;;;;85.28;46.92;;;;;;;;;;4348885;32;20235;-83
2021/07/26 17:10:46;;;;;;;88.87;46.55;;;;;;;;;;4350762;33;20191;-83
2021/07/26 17:13:14;;;;;;;96.97;48.28;;;;;;;;;;4350050;33;20216;-81
2021/07/26 17:15:40;;;;;;;75.75;40.12;;;;;;;;;;4362038;32;20200;-83
2021/07/26 17:18:06;;;;;;;86.53;46.10;;;;;;;;;;4346766;32;20171;-82
2021/07/26 17:20:32;;;;;;;85.43;45.25;;;;;;;;;;4347214;32;20147;-82
2021/07/26 17:22:57;;;;;;;70.18;37.55;;;;;;;;;;4359969;33;20266;-84
2021/07/26 17:25:22;;;;;;;60.53;36.80;;;;;;;;;;4360613;32;20151;-84
2021/07/26 17:27:48;;;;;;;54.75;34.85;;;;;;;;;;4359700;32;20187;-83
2021/07/26 17:30:15;;;;;;;59.13;36.10;;;;;;;;;;4359711;32;20166;-83
2021/07/26 17:32:41;;;;;;;59.38;38.03;;;;;;;;;;4361470;32;20123;-85
2021/07/26 17:35:06;;;;;;;51.35;33.97;;;;;;;;;;4359460;32;20496;-84
2021/07/26 17:37:56;;;;;;;55.97;34.20;;;;;;;;;;4360358;33;20151;-83
2021/07/26 17:40:47;;;;;;;55.83;33.70;;;;;;;;;;4359402;33;20163;-84
2021/07/26 17:43:13;;;;;;;53.80;33.75;;;;;;;;;;4366932;32;20159;-84
2021/07/26 17:45:48;;;;;;;53.85;33.67;;;;;;;;;;4359985;33;20221;-85
2021/07/26 17:51:10;;;;;;;63.87;37.13;;;;;;;;;;4360952;33;20213;-85
2021/07/26 17:53:39;;;;;;;72.00;39.75;;;;;;;;;;4359332;32;20163;-84
2021/07/26 17:56:04;;;;;;;60.50;35.83;;;;;;;;;;4359436;32;20216;-84
2021/07/26 17:58:39;;;;;;;62.58;39.22;;;;;;;;;;4358958;33;20573;-83
2021/07/26 18:01:12;;;;;;;58.78;35.60;;;;;;;;;;4359192;32;20607;-84
2021/07/26 18:03:40;;;;;;;58.87;37.10;;;;;;;;;;4359104;32;20174;-83
2021/07/26 18:06:15;;;;;;;;;;;;;;;;;;;;;
2021/07/26 18:09:17;;;;;;;60.30;34.03;;;;;;;;;;4360146;33;20465;-82
2021/07/26 18:11:53;;;;;;;53.60;33.75;;;;;;;;;;4358273;33;20155;-81
2021/07/26 18:14:21;;;;;;;60.85;35.72;;;;;;;;;;4344629;32;20202;-81
2021/07/26 18:16:47;;;;;;;54.65;34.38;;;;;;;;;;4344123;32;20189;-82
2021/07/26 18:19:22;;;;;;;51.05;32.88;;;;;;;;;;4344207;33;20168;-83
2021/07/26 18:21:51;;;;;;;39.88;26.58;;;;;;;;;;4338241;32;20244;-81
2021/07/26 18:24:16;;;;;;;40.75;26.42;;;;;;;;;;4332105;32;20179;-82
2021/07/26 18:26:42;;;;;;;41.22;28.87;;;;;;;;;;4331603;32;20151;-81
2021/07/26 18:29:10;;;;;;;42.10;29.98;;;;;;;;;;4332286;32;20160;-84
2021/07/26 18:31:42;;;;;;;45.42;29.70;;;;;;;;;;4331996;32;20164;-82
2021/07/26 18:34:10;;;;;;;40.70;27.05;;;;;;;;;;4345974;32;20128;-81